Island Queen — WDE6981 — position and weather

sailwx.info

Track history (hours):
 
Tides and Currents Weather Stations Pressure Air Temp Water Temp Dewpoint Dewpoint Depression Visibility Wind Speed Wind Dir Waves Ship Positions

Island Queen

Owner: Island Queen Sightseeing Tours Inc., Miami, FL. More information available from US FCC via Universal Licensing System and Coast Guard Vessel Documentation Center.

Last reported at 2017-Dec-11 01:31 UTC. Time now 2017-Dec-11 01:45 UTC.
Position N 25°47' W 080°11'.

Type: Passenger vessel. MMSI: 367387350.

Date/timePositionNaut miles runAvg speedWind from/ knotsBaromVisibWave heightAir tempDewpointWater temp
2017-Dec-11 01:31N 25°47' W 080°11'2 3.2
2017-Dec-11 01:01N 25°47' W 080°09'1 2.1
2017-Dec-11 00:31N 25°46' W 080°08'2 3.9
2017-Dec-10 23:52N 25°47' W 080°11'0 0.0
2017-Dec-10 23:31N 25°47' W 080°11'2 3.5
2017-Dec-10 23:01N 25°47' W 080°09'1 2.4
2017-Dec-10 22:31N 25°46' W 080°08'3 4.9
2017-Dec-10 21:59N 25°47' W 080°11'0 0.0
2017-Dec-10 21:29N 25°47' W 080°11'0 0.0
2017-Dec-10 20:59N 25°47' W 080°11'0 0.0
2017-Dec-10 20:29N 25°47' W 080°11'0 0.0
2017-Dec-10 19:59N 25°47' W 080°11'0 0.2
2017-Dec-10 19:30N 25°47' W 080°11'2 4.8
2017-Dec-10 19:01N 25°46' W 080°09'1 2.2
2017-Dec-10 18:31N 25°47' W 080°09'2 2.5
2017-Dec-10 17:52N 25°47' W 080°11'0 0.0
2017-Dec-10 17:31N 25°47' W 080°11'2 4.1
2017-Dec-10 17:00N 25°46' W 080°09'1 2.1
2017-Dec-10 16:31N 25°47' W 080°10'1 2.2
2017-Dec-10 15:51N 25°47' W 080°11'0 0.0
2017-Dec-10 15:30N 25°47' W 080°11'0 0.0
2017-Dec-10 15:00N 25°47' W 080°11'0 0.0
2017-Dec-10 14:30N 25°47' W 080°11'0 0.0
2017-Dec-10 14:00N 25°47' W 080°11'0 0.0
2017-Dec-10 13:30N 25°47' W 080°11'0 0.0
2017-Dec-10 13:00N 25°47' W 080°11'0 0.0
2017-Dec-10 12:30N 25°47' W 080°11'0 0.0
2017-Dec-10 12:00N 25°47' W 080°11'0 0.0
2017-Dec-10 11:30N 25°47' W 080°11'0 0.0
2017-Dec-10 11:00N 25°47' W 080°11'0 0.0
2017-Dec-10 10:27N 25°47' W 080°11'0 0.0
2017-Dec-10 10:00N 25°47' W 080°11'0 0.0
2017-Dec-10 09:27N 25°47' W 080°11'0 0.0
2017-Dec-10 09:00N 25°47' W 080°11'0 0.0
2017-Dec-10 08:30N 25°47' W 080°11'0 0.0
2017-Dec-10 07:57N 25°47' W 080°11'0 0.0
2017-Dec-10 07:30N 25°47' W 080°11'0 0.0
2017-Dec-10 07:00N 25°47' W 080°11'0 0.0
2017-Dec-10 06:30N 25°47' W 080°11'0 0.0
2017-Dec-10 06:00N 25°47' W 080°11'0 0.2
2017-Dec-10 05:30N 25°47' W 080°11'0 0.3
2017-Dec-10 05:01N 25°47' W 080°11'0 1.0
2017-Dec-10 04:30N 25°47' W 080°11'2 3.9
2017-Dec-10 04:00N 25°46' W 080°09'1 2.6
2017-Dec-10 03:30N 25°46' W 080°10'1 2.1
2017-Dec-10 02:59N 25°47' W 080°11'0 0.0
2017-Dec-10 02:29N 25°47' W 080°11'2 3.7
2017-Dec-10 02:01N 25°46' W 080°09'1 1.0
2017-Dec-10 01:31N 25°47' W 080°09'2 2.7
2017-Dec-10 00:53N 25°47' W 080°11'0 0.0
2017-Dec-10 00:29N 25°47' W 080°11'0 0.0
2017-Dec-09 23:56N 25°47' W 080°11'0 0.0
2017-Dec-09 23:29N 25°47' W 080°11'0 0.5
2017-Dec-09 23:01N 25°47' W 080°11'2 3.2
2017-Dec-09 22:31N 25°47' W 080°09'1 2.4
2017-Dec-09 22:01N 25°47' W 080°10'1 1.3
2017-Dec-09 21:29N 25°47' W 080°11'0 0.0
2017-Dec-09 20:59N 25°47' W 080°11'2 3.8
2017-Dec-09 20:31N 25°46' W 080°09'1 1.8
2017-Dec-09 20:00N 25°47' W 080°10'1 3.0
2017-Dec-09 19:31N 25°47' W 080°11'0 0.0
2017-Dec-09 19:01N 25°47' W 080°11'2 4.6
2017-Dec-09 18:30N 25°46' W 080°09'1 2.4
2017-Dec-09 18:00N 25°47' W 080°09'2 3.1
2017-Dec-09 17:28N 25°47' W 080°11'0 0.0
2017-Dec-09 16:58N 25°47' W 080°11'2 4.8
2017-Dec-09 16:31N 25°46' W 080°09'1 2.0
2017-Dec-09 16:00N 25°47' W 080°09'2 3.1
2017-Dec-09 15:30N 25°47' W 080°11'0 0.0
2017-Dec-09 15:00N 25°47' W 080°11'0 0.0
2017-Dec-09 14:30N 25°47' W 080°11'0 0.0
2017-Dec-09 13:57N 25°47' W 080°11'0 0.0
2017-Dec-09 13:30N 25°47' W 080°11'0 0.0
2017-Dec-09 13:00N 25°47' W 080°11'0 0.0
2017-Dec-09 12:30N 25°47' W 080°11'0 0.0
2017-Dec-09 11:54N 25°47' W 080°11'0 0.0
2017-Dec-09 11:30N 25°47' W 080°11'0 0.0
2017-Dec-09 11:00N 25°47' W 080°11'0 0.0
2017-Dec-09 10:30N 25°47' W 080°11'0 0.0
2017-Dec-09 10:00N 25°47' W 080°11'0 0.0
2017-Dec-09 09:30N 25°47' W 080°11'0 0.0
2017-Dec-09 09:00N 25°47' W 080°11'0 0.0
2017-Dec-09 08:30N 25°47' W 080°11'0 0.0
2017-Dec-09 08:00N 25°47' W 080°11'0 0.0
2017-Dec-09 07:30N 25°47' W 080°11'0 0.0
2017-Dec-09 07:00N 25°47' W 080°11'0 0.0
2017-Dec-09 06:30N 25°47' W 080°11'0 0.0
2017-Dec-09 06:00N 25°47' W 080°11'0 0.0
2017-Dec-09 05:30N 25°47' W 080°11'0 0.0
2017-Dec-09 05:00N 25°47' W 080°11'0 0.0
2017-Dec-09 04:30N 25°47' W 080°11'0 0.3
2017-Dec-09 04:00N 25°47' W 080°11'1 2.8
2017-Dec-09 03:30N 25°46' W 080°10'1 2.1
2017-Dec-09 03:00N 25°46' W 080°11'1 1.0
2017-Dec-09 02:30N 25°47' W 080°11'1 1.9
2017-Dec-09 02:00N 25°46' W 080°10'1 2.0
2017-Dec-09 01:30N 25°47' W 080°09'2 3.1
2017-Dec-09 00:55N 25°47' W 080°11'1 2.2
2017-Dec-09 00:30N 25°47' W 080°10'2 4.0
2017-Dec-09 00:00N 25°46' W 080°09'2 4.4
2017-Dec-08 23:29N 25°47' W 080°11'0 0.0
2017-Dec-08 22:58N 25°47' W 080°11'2 3.9
2017-Dec-08 22:30N 25°46' W 080°09'1 1.9
2017-Dec-08 22:00N 25°47' W 080°10'1 2.7
2017-Dec-08 21:29N 25°47' W 080°11'0 0.0
2017-Dec-08 21:00N 25°47' W 080°11'2 3.5
2017-Dec-08 20:31N 25°46' W 080°09'1 1.8
2017-Dec-08 20:00N 25°47' W 080°10'1 2.2
2017-Dec-08 19:21N 25°47' W 080°11'0 0.0
2017-Dec-08 19:00N 25°47' W 080°11'2 4.3
2017-Dec-08 18:30N 25°46' W 080°09'1 2.0
2017-Dec-08 18:00N 25°47' W 080°09'2 3.0
2017-Dec-08 17:29N 25°47' W 080°11'0 0.0
2017-Dec-08 16:59N 25°47' W 080°11'2 3.6
2017-Dec-08 16:30N 25°46' W 080°09'1 1.7
2017-Dec-08 16:00N 25°47' W 080°09'2 3.1
2017-Dec-08 15:30N 25°47' W 080°11'0 0.0
2017-Dec-08 15:00N 25°47' W 080°11'0 0.0
2017-Dec-08 14:30N 25°47' W 080°11'0 0.0
2017-Dec-08 14:00N 25°47' W 080°11'0 0.0
2017-Dec-08 13:30N 25°47' W 080°11'0 0.0
2017-Dec-08 13:00N 25°47' W 080°11'0 0.0
2017-Dec-08 12:30N 25°47' W 080°11'0 0.0
2017-Dec-08 11:57N 25°47' W 080°11'0 0.0
2017-Dec-08 11:27N 25°47' W 080°11'0 0.0
2017-Dec-08 10:57N 25°47' W 080°11'0 0.0
2017-Dec-08 10:30N 25°47' W 080°11'0 0.0
2017-Dec-08 10:00N 25°47' W 080°11'0 0.0
2017-Dec-08 09:30N 25°47' W 080°11'0 0.0
2017-Dec-08 09:00N 25°47' W 080°11'0 0.0
2017-Dec-08 08:30N 25°47' W 080°11'0 0.0
2017-Dec-08 08:00N 25°47' W 080°11'0 0.0
2017-Dec-08 07:27N 25°47' W 080°11'0 0.0
2017-Dec-08 07:00N 25°47' W 080°11'0 0.0
2017-Dec-08 06:30N 25°47' W 080°11'0 0.0
2017-Dec-08 05:54N 25°47' W 080°11'0 0.0
2017-Dec-08 05:30N 25°47' W 080°11'0 0.0
2017-Dec-08 04:54N 25°47' W 080°11'0 0.0
2017-Dec-08 04:30N 25°47' W 080°11'0 0.0
2017-Dec-08 04:00N 25°47' W 080°11'0 0.0
2017-Dec-08 03:30N 25°47' W 080°11'0 0.0
2017-Dec-08 02:52N 25°47' W 080°11'0 0.0
2017-Dec-08 02:10N 25°47' W 080°11'0 0.0
2017-Dec-08 01:58N 25°47' W 080°11'0 0.0
2017-Dec-08 01:29N 25°47' W 080°11'0 0.0
2017-Dec-08 00:53N 25°47' W 080°11'0 0.0
2017-Dec-08 00:22N 25°47' W 080°11'0 0.0
2017-Dec-07 23:43N 25°47' W 080°11'0 0.0
2017-Dec-07 23:30N 25°47' W 080°11'1 1.3
2017-Dec-07 23:00N 25°47' W 080°11'1 2.6
2017-Dec-07 22:30N 25°47' W 080°10'1 1.9
2017-Dec-07 22:00N 25°46' W 080°09'2 3.5
2017-Dec-07 21:28N 25°47' W 080°11'0 0.0
2017-Dec-07 20:58N 25°47' W 080°11'0 0.0
2017-Dec-07 20:28N 25°47' W 080°11'0 0.0
2017-Dec-07 19:58N 25°47' W 080°11'0 0.4
2017-Dec-07 19:30N 25°47' W 080°11'1 3.0
2017-Dec-07 19:01N 25°47' W 080°09'1 1.6
2017-Dec-07 18:30N 25°46' W 080°09'2 3.9
2017-Dec-07 17:58N 25°47' W 080°11'0 0.4
2017-Dec-07 17:30N 25°47' W 080°11'2 4.4
2017-Dec-07 17:00N 25°46' W 080°09'1 2.0
2017-Dec-07 16:30N 25°47' W 080°09'2 2.8
2017-Dec-07 15:54N 25°47' W 080°11'0 0.0
2017-Dec-07 15:30N 25°47' W 080°11'0 0.0
2017-Dec-07 14:58N 25°47' W 080°11'0 0.0
2017-Dec-07 14:28N 25°47' W 080°11'0 0.0
2017-Dec-07 13:58N 25°47' W 080°11'0 0.0
2017-Dec-07 13:28N 25°47' W 080°11'0 0.0
2017-Dec-07 12:58N 25°47' W 080°11'0 0.0
2017-Dec-07 12:25N 25°47' W 080°11'0 0.0
2017-Dec-07 11:58N 25°47' W 080°11'0 0.0
2017-Dec-07 11:28N 25°47' W 080°11'0 0.0
2017-Dec-07 10:58N 25°47' W 080°11'0 0.0
2017-Dec-07 10:28N 25°47' W 080°11'0 0.0
2017-Dec-07 09:58N 25°47' W 080°11'0 0.0
2017-Dec-07 09:28N 25°47' W 080°11'0 0.0
2017-Dec-07 08:58N 25°47' W 080°11'0 0.0
2017-Dec-07 08:28N 25°47' W 080°11'0 0.0
2017-Dec-07 07:58N 25°47' W 080°11'0 0.0
2017-Dec-07 07:28N 25°47' W 080°11'0 0.0
2017-Dec-07 06:55N 25°47' W 080°11'0 0.0
2017-Dec-07 06:28N 25°47' W 080°11'0 0.0
2017-Dec-07 05:58N 25°47' W 080°11'0 0.0
2017-Dec-07 05:28N 25°47' W 080°11'0 0.0
2017-Dec-07 04:58N 25°47' W 080°11'0 0.0
2017-Dec-07 04:16N 25°47' W 080°11'0 0.0
2017-Dec-07 03:55N 25°47' W 080°11'0 0.0
2017-Dec-07 03:28N 25°47' W 080°11'0 0.0
2017-Dec-07 02:58N 25°47' W 080°11'0 0.0
2017-Dec-07 02:28N 25°47' W 080°11'0 0.0
2017-Dec-07 01:58N 25°47' W 080°11'0 0.0
2017-Dec-07 01:28N 25°47' W 080°11'1 1.4
2017-Dec-07 01:00N 25°46' W 080°11'1 2.6
2017-Dec-07 00:30N 25°47' W 080°09'2 3.6
2017-Dec-07 00:00N 25°47' W 080°11'0 0.0
2017-Dec-06 23:30N 25°47' W 080°11'1 1.9
2017-Dec-06 23:01N 25°47' W 080°10'1 2.8
2017-Dec-06 22:30N 25°47' W 080°09'2 3.8
2017-Dec-06 21:58N 25°47' W 080°11'0 0.0
2017-Dec-06 21:29N 25°47' W 080°11'2 4.5
2017-Dec-06 21:00N 25°46' W 080°09'  
2017-Dec-04 10:24N 25°47' W 080°11'0 0.0
2017-Dec-04 09:54N 25°47' W 080°11'0 0.0
2017-Dec-04 09:03N 25°47' W 080°11'0 0.0
2017-Dec-04 08:51N 25°47' W 080°11'0 0.0
2017-Dec-04 08:24N 25°47' W 080°11'0 0.0
2017-Dec-04 08:00N 25°47' W 080°11'0 0.0
2017-Dec-04 07:30N 25°47' W 080°11'0 0.0
2017-Dec-04 07:00N 25°47' W 080°11'0 0.0
2017-Dec-04 06:30N 25°47' W 080°11'0 0.0
2017-Dec-04 06:00N 25°47' W 080°11'0 0.0
2017-Dec-04 05:30N 25°47' W 080°11'0 0.0
2017-Dec-04 05:00N 25°47' W 080°11'0 0.0
2017-Dec-04 04:30N 25°47' W 080°11'0 0.0
2017-Dec-04 03:54N 25°47' W 080°11'0 0.0
2017-Dec-04 03:27N 25°47' W 080°11'0 0.0
2017-Dec-04 03:00N 25°47' W 080°11'0 0.1
2017-Dec-04 02:28N 25°47' W 080°11'0 0.2
2017-Dec-04 01:59N 25°47' W 080°11'2 4.9
2017-Dec-04 01:30N 25°44' W 080°11'1 2.2
2017-Dec-04 01:00N 25°45' W 080°10'2 4.0
2017-Dec-04 00:30N 25°47' W 080°09'2 3.6
2017-Dec-03 23:59N 25°47' W 080°11'0 0.0
2017-Dec-03 23:26N 25°47' W 080°11'0 0.0
2017-Dec-03 22:56N 25°47' W 080°11'0 0.0
2017-Dec-03 22:29N 25°47' W 080°11'0 0.1
2017-Dec-03 21:59N 25°47' W 080°11'0 0.0
2017-Dec-03 21:28N 25°47' W 080°11'1 3.1
2017-Dec-03 21:00N 25°47' W 080°10'1 2.2
2017-Dec-03 20:30N 25°46' W 080°09'2 4.2
2017-Dec-03 20:00N 25°47' W 080°11'0 0.3
2017-Dec-03 19:30N 25°47' W 080°11'1 3.0
2017-Dec-03 19:00N 25°47' W 080°09'1 1.7
2017-Dec-03 18:30N 25°46' W 080°10'2 3.1
2017-Dec-03 17:58N 25°47' W 080°11'0 0.1
2017-Dec-03 17:28N 25°47' W 080°11'2 3.7
2017-Dec-03 17:00N 25°47' W 080°09'1 1.7
2017-Dec-03 16:30N 25°46' W 080°09'2 4.6
2017-Dec-03 15:59N 25°47' W 080°11'0 0.0
2017-Dec-03 15:29N 25°47' W 080°11'0 0.0
2017-Dec-03 14:59N 25°47' W 080°11'0 0.0
2017-Dec-03 14:29N 25°47' W 080°11'0 0.0
2017-Dec-03 13:50N 25°47' W 080°11'0 0.0
2017-Dec-03 13:29N 25°47' W 080°11'0 0.0
2017-Dec-03 12:59N 25°47' W 080°11'0 0.0
2017-Dec-03 12:29N 25°47' W 080°11'0 0.0
2017-Dec-03 11:59N 25°47' W 080°11'0 0.0
2017-Dec-03 11:29N 25°47' W 080°11'0 0.0
2017-Dec-03 10:59N 25°47' W 080°11'0 0.0
2017-Dec-03 10:26N 25°47' W 080°11'0 0.0
2017-Dec-03 09:59N 25°47' W 080°11'0 0.0
2017-Dec-03 09:29N 25°47' W 080°11'0 0.0
2017-Dec-03 08:59N 25°47' W 080°11'0 0.0
2017-Dec-03 08:26N 25°47' W 080°11'0 0.0
2017-Dec-03 07:59N 25°47' W 080°11'0 0.0
2017-Dec-03 07:29N 25°47' W 080°11'0 0.0
2017-Dec-03 06:59N 25°47' W 080°11'0 0.0
2017-Dec-03 06:29N 25°47' W 080°11'0 0.0
2017-Dec-03 05:56N 25°47' W 080°11'0 0.0
2017-Dec-03 05:26N 25°47' W 080°11'0 0.0
2017-Dec-03 04:59N 25°47' W 080°11'1 1.9
2017-Dec-03 04:30N 25°47' W 080°10'2 3.3
2017-Dec-03 04:00N 25°46' W 080°08'2 4.7
2017-Dec-03 03:30N 25°46' W 080°11'0 0.6
2017-Dec-03 03:00N 25°47' W 080°11'0 0.3
2017-Dec-03 02:30N 25°47' W 080°11'1 2.9
2017-Dec-03 02:00N 25°47' W 080°09'1 1.8
2017-Dec-03 01:30N 25°46' W 080°09'2 3.2
2017-Dec-03 00:58N 25°47' W 080°11'2 3.6
2017-Dec-03 00:30N 25°47' W 080°09'1 2.5
2017-Dec-03 00:00N 25°46' W 080°09'2 4.1
2017-Dec-02 23:28N 25°47' W 080°11'0 0.0
2017-Dec-02 23:00N 25°47' W 080°11'2 3.1
2017-Dec-02 22:30N 25°47' W 080°09'1 1.9
2017-Dec-02 22:00N 25°46' W 080°09'2 4.1
2017-Dec-02 21:30N 25°47' W 080°11'0 0.0
2017-Dec-02 20:57N 25°47' W 080°11'1 3.4
2017-Dec-02 20:30N 25°47' W 080°10'1 2.5
2017-Dec-02 20:00N 25°46' W 080°09'2 4.4
2017-Dec-02 19:28N 25°47' W 080°11'0 0.0
2017-Dec-02 18:57N 25°47' W 080°11'2 4.8
2017-Dec-02 18:30N 25°46' W 080°09'1 1.9
2017-Dec-02 18:00N 25°47' W 080°09'2 3.3
2017-Dec-02 17:30N 25°47' W 080°11'0 0.0
2017-Dec-02 17:00N 25°47' W 080°11'2 4.7
2017-Dec-02 16:28N 25°46' W 080°09'1 2.8
2017-Dec-02 16:00N 25°47' W 080°10'1 2.9
2017-Dec-02 15:30N 25°47' W 080°11'0 0.1
2017-Dec-02 14:59N 25°47' W 080°11'0 0.0
2017-Dec-02 14:22N 25°47' W 080°11'0 0.0
2017-Dec-02 13:54N 25°47' W 080°11'0 0.0
2017-Dec-02 13:26N 25°47' W 080°11'0 0.0
2017-Dec-02 13:00N 25°47' W 080°11'0 0.0
2017-Dec-02 12:30N 25°47' W 080°11'0 0.0
2017-Dec-02 11:54N 25°47' W 080°11'0 0.0
2017-Dec-02 11:30N 25°47' W 080°11'0 0.0
2017-Dec-02 11:00N 25°47' W 080°11'0 0.0
2017-Dec-02 10:18N 25°47' W 080°11'0 0.0
2017-Dec-02 09:54N 25°47' W 080°11'0 0.0
2017-Dec-02 09:30N 25°47' W 080°11'0 0.0
2017-Dec-02 08:54N 25°47' W 080°11'0 0.0
2017-Dec-02 08:30N 25°47' W 080°11'0 0.0
2017-Dec-02 07:54N 25°47' W 080°11'0 0.0
2017-Dec-02 07:30N 25°47' W 080°11'0 0.0
2017-Dec-02 06:57N 25°47' W 080°11'0 0.0
2017-Dec-02 06:27N 25°47' W 080°11'0 0.0
2017-Dec-02 05:57N 25°47' W 080°11'0 0.0
2017-Dec-02 05:30N 25°47' W 080°11'0 0.0
2017-Dec-02 05:00N 25°47' W 080°11'0 0.0
2017-Dec-02 04:30N 25°47' W 080°11'0 0.0
2017-Dec-02 03:57N 25°47' W 080°11'0 0.0
2017-Dec-02 03:24N 25°47' W 080°11'0 0.0
2017-Dec-02 02:51N 25°47' W 080°11'0 0.0
2017-Dec-02 02:27N 25°47' W 080°11'0 0.0
2017-Dec-02 01:57N 25°47' W 080°11'0 0.0
2017-Dec-02 01:24N 25°47' W 080°11'0 0.0
2017-Dec-02 00:57N 25°47' W 080°11'1 2.0
2017-Dec-02 00:30N 25°47' W 080°11'2 4.3
2017-Dec-02 00:00N 25°46' W 080°09'2 4.4
2017-Dec-01 23:27N 25°47' W 080°11'0 0.0
2017-Dec-01 23:00N 25°47' W 080°11'2 4.7
2017-Dec-01 22:30N 25°46' W 080°09'1 2.3
2017-Dec-01 22:00N 25°47' W 080°10'1 2.7
2017-Dec-01 21:27N 25°47' W 080°11'0 0.1
2017-Dec-01 21:00N 25°47' W 080°11'2 4.8
2017-Dec-01 20:30N 25°46' W 080°09'1 2.2
2017-Dec-01 20:00N 25°47' W 080°10'1 2.9
2017-Dec-01 19:29N 25°47' W 080°11'0 0.1
2017-Dec-01 19:00N 25°47' W 080°11'1 3.0
2017-Dec-01 18:30N 25°47' W 080°09'1 2.4
2017-Dec-01 18:00N 25°46' W 080°08'3 4.7
2017-Dec-01 17:28N 25°47' W 080°11'0 0.0
2017-Dec-01 16:59N 25°47' W 080°11'2 4.6
2017-Dec-01 16:30N 25°46' W 080°09'1 2.0
2017-Dec-01 16:00N 25°47' W 080°09'2 2.5
2017-Dec-01 15:22N 25°47' W 080°11'0 0.0
2017-Dec-01 14:58N 25°47' W 080°11'0 0.0
2017-Dec-01 14:25N 25°47' W 080°11'0 0.0
2017-Dec-01 13:58N 25°47' W 080°11'0 0.0
2017-Dec-01 13:25N 25°47' W 080°11'0 0.0
2017-Dec-01 12:58N 25°47' W 080°11'0 0.0
2017-Dec-01 12:28N 25°47' W 080°11'0 0.0
2017-Dec-01 11:58N 25°47' W 080°11'0 0.0
2017-Dec-01 11:25N 25°47' W 080°11'0 0.0
2017-Dec-01 10:58N 25°47' W 080°11'0 0.0
2017-Dec-01 10:28N 25°47' W 080°11'0 0.0
2017-Dec-01 09:58N 25°47' W 080°11'0 0.0
2017-Dec-01 09:19N 25°47' W 080°11'0 0.0
2017-Dec-01 08:58N 25°47' W 080°11'0 0.0
2017-Dec-01 08:28N 25°47' W 080°11'0 0.0
2017-Dec-01 07:58N 25°47' W 080°11'0 0.0
2017-Dec-01 07:28N 25°47' W 080°11'0 0.0
2017-Dec-01 06:55N 25°47' W 080°11'0 0.0
2017-Dec-01 06:28N 25°47' W 080°11'0 0.0
2017-Dec-01 05:58N 25°47' W 080°11'0 0.0
2017-Dec-01 05:28N 25°47' W 080°11'0 0.0
2017-Dec-01 04:58N 25°47' W 080°11'0 0.0
2017-Dec-01 04:28N 25°47' W 080°11'0 0.0
2017-Dec-01 03:58N 25°47' W 080°11'0 0.0
2017-Dec-01 03:28N 25°47' W 080°11'0 0.0
2017-Dec-01 02:58N 25°47' W 080°11'0 0.0
2017-Dec-01 02:19N 25°47' W 080°11'0 0.0
2017-Dec-01 01:58N 25°47' W 080°11'  
Track history (hours):
 
Tides and Currents Weather Stations Pressure Air Temp Water Temp Dewpoint Dewpoint Depression Visibility Wind Speed Wind Dir Waves Ship Positions

Island Queen

Owner: Island Queen Sightseeing Tours Inc., Miami, FL. More information available from US FCC via Universal Licensing System and Coast Guard Vessel Documentation Center.

Last reported at 2017-Dec-11 01:31 UTC. Time now 2017-Dec-11 01:45 UTC.
Position N 25°47' W 080°11'.

Type: Passenger vessel. MMSI: 367387350.

Date/timePositionNaut miles runAvg speedWind from/ knotsBaromVisibWave heightAir tempDewpointWater temp
2017-Dec-11 01:31N 25°47' W 080°11'2 3.2
2017-Dec-11 01:01N 25°47' W 080°09'1 2.1
2017-Dec-11 00:31N 25°46' W 080°08'2 3.9
2017-Dec-10 23:52N 25°47' W 080°11'0 0.0
2017-Dec-10 23:31N 25°47' W 080°11'2 3.5
2017-Dec-10 23:01N 25°47' W 080°09'1 2.4
2017-Dec-10 22:31N 25°46' W 080°08'3 4.9
2017-Dec-10 21:59N 25°47' W 080°11'0 0.0
2017-Dec-10 21:29N 25°47' W 080°11'0 0.0
2017-Dec-10 20:59N 25°47' W 080°11'0 0.0
2017-Dec-10 20:29N 25°47' W 080°11'0 0.0
2017-Dec-10 19:59N 25°47' W 080°11'0 0.2
2017-Dec-10 19:30N 25°47' W 080°11'2 4.8
2017-Dec-10 19:01N 25°46' W 080°09'1 2.2
2017-Dec-10 18:31N 25°47' W 080°09'2 2.5
2017-Dec-10 17:52N 25°47' W 080°11'0 0.0
2017-Dec-10 17:31N 25°47' W 080°11'2 4.1
2017-Dec-10 17:00N 25°46' W 080°09'1 2.1
2017-Dec-10 16:31N 25°47' W 080°10'1 2.2
2017-Dec-10 15:51N 25°47' W 080°11'0 0.0
2017-Dec-10 15:30N 25°47' W 080°11'0 0.0
2017-Dec-10 15:00N 25°47' W 080°11'0 0.0
2017-Dec-10 14:30N 25°47' W 080°11'0 0.0
2017-Dec-10 14:00N 25°47' W 080°11'0 0.0
2017-Dec-10 13:30N 25°47' W 080°11'0 0.0
2017-Dec-10 13:00N 25°47' W 080°11'0 0.0
2017-Dec-10 12:30N 25°47' W 080°11'0 0.0
2017-Dec-10 12:00N 25°47' W 080°11'0 0.0
2017-Dec-10 11:30N 25°47' W 080°11'0 0.0
2017-Dec-10 11:00N 25°47' W 080°11'0 0.0
2017-Dec-10 10:27N 25°47' W 080°11'0 0.0
2017-Dec-10 10:00N 25°47' W 080°11'0 0.0
2017-Dec-10 09:27N 25°47' W 080°11'0 0.0
2017-Dec-10 09:00N 25°47' W 080°11'0 0.0
2017-Dec-10 08:30N 25°47' W 080°11'0 0.0
2017-Dec-10 07:57N 25°47' W 080°11'0 0.0
2017-Dec-10 07:30N 25°47' W 080°11'0 0.0
2017-Dec-10 07:00N 25°47' W 080°11'0 0.0
2017-Dec-10 06:30N 25°47' W 080°11'0 0.0
2017-Dec-10 06:00N 25°47' W 080°11'0 0.2
2017-Dec-10 05:30N 25°47' W 080°11'0 0.3
2017-Dec-10 05:01N 25°47' W 080°11'0 1.0
2017-Dec-10 04:30N 25°47' W 080°11'2 3.9
2017-Dec-10 04:00N 25°46' W 080°09'1 2.6
2017-Dec-10 03:30N 25°46' W 080°10'1 2.1
2017-Dec-10 02:59N 25°47' W 080°11'0 0.0
2017-Dec-10 02:29N 25°47' W 080°11'2 3.7
2017-Dec-10 02:01N 25°46' W 080°09'1 1.0
2017-Dec-10 01:31N 25°47' W 080°09'2 2.7
2017-Dec-10 00:53N 25°47' W 080°11'0 0.0
2017-Dec-10 00:29N 25°47' W 080°11'0 0.0
2017-Dec-09 23:56N 25°47' W 080°11'0 0.0
2017-Dec-09 23:29N 25°47' W 080°11'0 0.5
2017-Dec-09 23:01N 25°47' W 080°11'2 3.2
2017-Dec-09 22:31N 25°47' W 080°09'1 2.4
2017-Dec-09 22:01N 25°47' W 080°10'1 1.3
2017-Dec-09 21:29N 25°47' W 080°11'0 0.0
2017-Dec-09 20:59N 25°47' W 080°11'2 3.8
2017-Dec-09 20:31N 25°46' W 080°09'1 1.8
2017-Dec-09 20:00N 25°47' W 080°10'1 3.0
2017-Dec-09 19:31N 25°47' W 080°11'0 0.0
2017-Dec-09 19:01N 25°47' W 080°11'2 4.6
2017-Dec-09 18:30N 25°46' W 080°09'1 2.4
2017-Dec-09 18:00N 25°47' W 080°09'2 3.1
2017-Dec-09 17:28N 25°47' W 080°11'0 0.0
2017-Dec-09 16:58N 25°47' W 080°11'2 4.8
2017-Dec-09 16:31N 25°46' W 080°09'1 2.0
2017-Dec-09 16:00N 25°47' W 080°09'2 3.1
2017-Dec-09 15:30N 25°47' W 080°11'0 0.0
2017-Dec-09 15:00N 25°47' W 080°11'0 0.0
2017-Dec-09 14:30N 25°47' W 080°11'0 0.0
2017-Dec-09 13:57N 25°47' W 080°11'0 0.0
2017-Dec-09 13:30N 25°47' W 080°11'0 0.0
2017-Dec-09 13:00N 25°47' W 080°11'0 0.0
2017-Dec-09 12:30N 25°47' W 080°11'0 0.0
2017-Dec-09 11:54N 25°47' W 080°11'0 0.0
2017-Dec-09 11:30N 25°47' W 080°11'0 0.0
2017-Dec-09 11:00N 25°47' W 080°11'0 0.0
2017-Dec-09 10:30N 25°47' W 080°11'0 0.0
2017-Dec-09 10:00N 25°47' W 080°11'0 0.0
2017-Dec-09 09:30N 25°47' W 080°11'0 0.0
2017-Dec-09 09:00N 25°47' W 080°11'0 0.0
2017-Dec-09 08:30N 25°47' W 080°11'0 0.0
2017-Dec-09 08:00N 25°47' W 080°11'0 0.0
2017-Dec-09 07:30N 25°47' W 080°11'0 0.0
2017-Dec-09 07:00N 25°47' W 080°11'0 0.0
2017-Dec-09 06:30N 25°47' W 080°11'0 0.0
2017-Dec-09 06:00N 25°47' W 080°11'0 0.0
2017-Dec-09 05:30N 25°47' W 080°11'0 0.0
2017-Dec-09 05:00N 25°47' W 080°11'0 0.0
2017-Dec-09 04:30N 25°47' W 080°11'0 0.3
2017-Dec-09 04:00N 25°47' W 080°11'1 2.8
2017-Dec-09 03:30N 25°46' W 080°10'1 2.1
2017-Dec-09 03:00N 25°46' W 080°11'1 1.0
2017-Dec-09 02:30N 25°47' W 080°11'1 1.9
2017-Dec-09 02:00N 25°46' W 080°10'1 2.0
2017-Dec-09 01:30N 25°47' W 080°09'2 3.1
2017-Dec-09 00:55N 25°47' W 080°11'1 2.2
2017-Dec-09 00:30N 25°47' W 080°10'2 4.0
2017-Dec-09 00:00N 25°46' W 080°09'2 4.4
2017-Dec-08 23:29N 25°47' W 080°11'0 0.0
2017-Dec-08 22:58N 25°47' W 080°11'2 3.9
2017-Dec-08 22:30N 25°46' W 080°09'1 1.9
2017-Dec-08 22:00N 25°47' W 080°10'1 2.7
2017-Dec-08 21:29N 25°47' W 080°11'0 0.0
2017-Dec-08 21:00N 25°47' W 080°11'2 3.5
2017-Dec-08 20:31N 25°46' W 080°09'1 1.8
2017-Dec-08 20:00N 25°47' W 080°10'1 2.2
2017-Dec-08 19:21N 25°47' W 080°11'0 0.0
2017-Dec-08 19:00N 25°47' W 080°11'2 4.3
2017-Dec-08 18:30N 25°46' W 080°09'1 2.0
2017-Dec-08 18:00N 25°47' W 080°09'2 3.0
2017-Dec-08 17:29N 25°47' W 080°11'0 0.0
2017-Dec-08 16:59N 25°47' W 080°11'2 3.6
2017-Dec-08 16:30N 25°46' W 080°09'1 1.7
2017-Dec-08 16:00N 25°47' W 080°09'2 3.1
2017-Dec-08 15:30N 25°47' W 080°11'0 0.0
2017-Dec-08 15:00N 25°47' W 080°11'0 0.0
2017-Dec-08 14:30N 25°47' W 080°11'0 0.0
2017-Dec-08 14:00N 25°47' W 080°11'0 0.0
2017-Dec-08 13:30N 25°47' W 080°11'0 0.0
2017-Dec-08 13:00N 25°47' W 080°11'0 0.0
2017-Dec-08 12:30N 25°47' W 080°11'0 0.0
2017-Dec-08 11:57N 25°47' W 080°11'0 0.0
2017-Dec-08 11:27N 25°47' W 080°11'0 0.0
2017-Dec-08 10:57N 25°47' W 080°11'0 0.0
2017-Dec-08 10:30N 25°47' W 080°11'0 0.0
2017-Dec-08 10:00N 25°47' W 080°11'0 0.0
2017-Dec-08 09:30N 25°47' W 080°11'0 0.0
2017-Dec-08 09:00N 25°47' W 080°11'0 0.0
2017-Dec-08 08:30N 25°47' W 080°11'0 0.0
2017-Dec-08 08:00N 25°47' W 080°11'0 0.0
2017-Dec-08 07:27N 25°47' W 080°11'0 0.0
2017-Dec-08 07:00N 25°47' W 080°11'0 0.0
2017-Dec-08 06:30N 25°47' W 080°11'0 0.0
2017-Dec-08 05:54N 25°47' W 080°11'0 0.0
2017-Dec-08 05:30N 25°47' W 080°11'0 0.0
2017-Dec-08 04:54N 25°47' W 080°11'0 0.0
2017-Dec-08 04:30N 25°47' W 080°11'0 0.0
2017-Dec-08 04:00N 25°47' W 080°11'0 0.0
2017-Dec-08 03:30N 25°47' W 080°11'0 0.0
2017-Dec-08 02:52N 25°47' W 080°11'0 0.0
2017-Dec-08 02:10N 25°47' W 080°11'0 0.0
2017-Dec-08 01:58N 25°47' W 080°11'0 0.0
2017-Dec-08 01:29N 25°47' W 080°11'0 0.0
2017-Dec-08 00:53N 25°47' W 080°11'0 0.0
2017-Dec-08 00:22N 25°47' W 080°11'0 0.0
2017-Dec-07 23:43N 25°47' W 080°11'0 0.0
2017-Dec-07 23:30N 25°47' W 080°11'1 1.3
2017-Dec-07 23:00N 25°47' W 080°11'1 2.6
2017-Dec-07 22:30N 25°47' W 080°10'1 1.9
2017-Dec-07 22:00N 25°46' W 080°09'2 3.5
2017-Dec-07 21:28N 25°47' W 080°11'0 0.0
2017-Dec-07 20:58N 25°47' W 080°11'0 0.0
2017-Dec-07 20:28N 25°47' W 080°11'0 0.0
2017-Dec-07 19:58N 25°47' W 080°11'0 0.4
2017-Dec-07 19:30N 25°47' W 080°11'1 3.0
2017-Dec-07 19:01N 25°47' W 080°09'1 1.6
2017-Dec-07 18:30N 25°46' W 080°09'2 3.9
2017-Dec-07 17:58N 25°47' W 080°11'0 0.4
2017-Dec-07 17:30N 25°47' W 080°11'2 4.4
2017-Dec-07 17:00N 25°46' W 080°09'1 2.0
2017-Dec-07 16:30N 25°47' W 080°09'2 2.8
2017-Dec-07 15:54N 25°47' W 080°11'0 0.0
2017-Dec-07 15:30N 25°47' W 080°11'0 0.0
2017-Dec-07 14:58N 25°47' W 080°11'0 0.0
2017-Dec-07 14:28N 25°47' W 080°11'0 0.0
2017-Dec-07 13:58N 25°47' W 080°11'0 0.0
2017-Dec-07 13:28N 25°47' W 080°11'0 0.0
2017-Dec-07 12:58N 25°47' W 080°11'0 0.0
2017-Dec-07 12:25N 25°47' W 080°11'0 0.0
2017-Dec-07 11:58N 25°47' W 080°11'0 0.0
2017-Dec-07 11:28N 25°47' W 080°11'0 0.0
2017-Dec-07 10:58N 25°47' W 080°11'0 0.0
2017-Dec-07 10:28N 25°47' W 080°11'0 0.0
2017-Dec-07 09:58N 25°47' W 080°11'0 0.0
2017-Dec-07 09:28N 25°47' W 080°11'0 0.0
2017-Dec-07 08:58N 25°47' W 080°11'0 0.0
2017-Dec-07 08:28N 25°47' W 080°11'0 0.0
2017-Dec-07 07:58N 25°47' W 080°11'0 0.0
2017-Dec-07 07:28N 25°47' W 080°11'0 0.0
2017-Dec-07 06:55N 25°47' W 080°11'0 0.0
2017-Dec-07 06:28N 25°47' W 080°11'0 0.0
2017-Dec-07 05:58N 25°47' W 080°11'0 0.0
2017-Dec-07 05:28N 25°47' W 080°11'0 0.0
2017-Dec-07 04:58N 25°47' W 080°11'0 0.0
2017-Dec-07 04:16N 25°47' W 080°11'0 0.0
2017-Dec-07 03:55N 25°47' W 080°11'0 0.0
2017-Dec-07 03:28N 25°47' W 080°11'0 0.0
2017-Dec-07 02:58N 25°47' W 080°11'0 0.0
2017-Dec-07 02:28N 25°47' W 080°11'0 0.0
2017-Dec-07 01:58N 25°47' W 080°11'0 0.0
2017-Dec-07 01:28N 25°47' W 080°11'1 1.4
2017-Dec-07 01:00N 25°46' W 080°11'1 2.6
2017-Dec-07 00:30N 25°47' W 080°09'2 3.6
2017-Dec-07 00:00N 25°47' W 080°11'0 0.0
2017-Dec-06 23:30N 25°47' W 080°11'1 1.9
2017-Dec-06 23:01N 25°47' W 080°10'1 2.8
2017-Dec-06 22:30N 25°47' W 080°09'2 3.8
2017-Dec-06 21:58N 25°47' W 080°11'0 0.0
2017-Dec-06 21:29N 25°47' W 080°11'2 4.5
2017-Dec-06 21:00N 25°46' W 080°09'  
2017-Dec-04 10:24N 25°47' W 080°11'0 0.0
2017-Dec-04 09:54N 25°47' W 080°11'0 0.0
2017-Dec-04 09:03N 25°47' W 080°11'0 0.0
2017-Dec-04 08:51N 25°47' W 080°11'0 0.0
2017-Dec-04 08:24N 25°47' W 080°11'0 0.0
2017-Dec-04 08:00N 25°47' W 080°11'0 0.0
2017-Dec-04 07:30N 25°47' W 080°11'0 0.0
2017-Dec-04 07:00N 25°47' W 080°11'0 0.0
2017-Dec-04 06:30N 25°47' W 080°11'0 0.0
2017-Dec-04 06:00N 25°47' W 080°11'0 0.0
2017-Dec-04 05:30N 25°47' W 080°11'0 0.0
2017-Dec-04 05:00N 25°47' W 080°11'0 0.0
2017-Dec-04 04:30N 25°47' W 080°11'0 0.0
2017-Dec-04 03:54N 25°47' W 080°11'0 0.0
2017-Dec-04 03:27N 25°47' W 080°11'0 0.0
2017-Dec-04 03:00N 25°47' W 080°11'0 0.1
2017-Dec-04 02:28N 25°47' W 080°11'0 0.2
2017-Dec-04 01:59N 25°47' W 080°11'2 4.9
2017-Dec-04 01:30N 25°44' W 080°11'1 2.2
2017-Dec-04 01:00N 25°45' W 080°10'2 4.0
2017-Dec-04 00:30N 25°47' W 080°09'2 3.6
2017-Dec-03 23:59N 25°47' W 080°11'0 0.0
2017-Dec-03 23:26N 25°47' W 080°11'0 0.0
2017-Dec-03 22:56N 25°47' W 080°11'0 0.0
2017-Dec-03 22:29N 25°47' W 080°11'0 0.1
2017-Dec-03 21:59N 25°47' W 080°11'0 0.0
2017-Dec-03 21:28N 25°47' W 080°11'1 3.1
2017-Dec-03 21:00N 25°47' W 080°10'1 2.2
2017-Dec-03 20:30N 25°46' W 080°09'2 4.2
2017-Dec-03 20:00N 25°47' W 080°11'0 0.3
2017-Dec-03 19:30N 25°47' W 080°11'1 3.0
2017-Dec-03 19:00N 25°47' W 080°09'1 1.7
2017-Dec-03 18:30N 25°46' W 080°10'2 3.1
2017-Dec-03 17:58N 25°47' W 080°11'0 0.1
2017-Dec-03 17:28N 25°47' W 080°11'2 3.7
2017-Dec-03 17:00N 25°47' W 080°09'1 1.7
2017-Dec-03 16:30N 25°46' W 080°09'2 4.6
2017-Dec-03 15:59N 25°47' W 080°11'0 0.0
2017-Dec-03 15:29N 25°47' W 080°11'0 0.0
2017-Dec-03 14:59N 25°47' W 080°11'0 0.0
2017-Dec-03 14:29N 25°47' W 080°11'0 0.0
2017-Dec-03 13:50N 25°47' W 080°11'0 0.0
2017-Dec-03 13:29N 25°47' W 080°11'0 0.0
2017-Dec-03 12:59N 25°47' W 080°11'0 0.0
2017-Dec-03 12:29N 25°47' W 080°11'0 0.0
2017-Dec-03 11:59N 25°47' W 080°11'0 0.0
2017-Dec-03 11:29N 25°47' W 080°11'0 0.0
2017-Dec-03 10:59N 25°47' W 080°11'0 0.0
2017-Dec-03 10:26N 25°47' W 080°11'0 0.0
2017-Dec-03 09:59N 25°47' W 080°11'0 0.0
2017-Dec-03 09:29N 25°47' W 080°11'0 0.0
2017-Dec-03 08:59N 25°47' W 080°11'0 0.0
2017-Dec-03 08:26N 25°47' W 080°11'0 0.0
2017-Dec-03 07:59N 25°47' W 080°11'0 0.0
2017-Dec-03 07:29N 25°47' W 080°11'0 0.0
2017-Dec-03 06:59N 25°47' W 080°11'0 0.0
2017-Dec-03 06:29N 25°47' W 080°11'0 0.0
2017-Dec-03 05:56N 25°47' W 080°11'0 0.0
2017-Dec-03 05:26N 25°47' W 080°11'0 0.0
2017-Dec-03 04:59N 25°47' W 080°11'1 1.9
2017-Dec-03 04:30N 25°47' W 080°10'2 3.3
2017-Dec-03 04:00N 25°46' W 080°08'2 4.7
2017-Dec-03 03:30N 25°46' W 080°11'0 0.6
2017-Dec-03 03:00N 25°47' W 080°11'0 0.3
2017-Dec-03 02:30N 25°47' W 080°11'1 2.9
2017-Dec-03 02:00N 25°47' W 080°09'1 1.8
2017-Dec-03 01:30N 25°46' W 080°09'2 3.2
2017-Dec-03 00:58N 25°47' W 080°11'2 3.6
2017-Dec-03 00:30N 25°47' W 080°09'1 2.5
2017-Dec-03 00:00N 25°46' W 080°09'2 4.1
2017-Dec-02 23:28N 25°47' W 080°11'0 0.0
2017-Dec-02 23:00N 25°47' W 080°11'2 3.1
2017-Dec-02 22:30N 25°47' W 080°09'1 1.9
2017-Dec-02 22:00N 25°46' W 080°09'2 4.1
2017-Dec-02 21:30N 25°47' W 080°11'0 0.0
2017-Dec-02 20:57N 25°47' W 080°11'1 3.4
2017-Dec-02 20:30N 25°47' W 080°10'1 2.5
2017-Dec-02 20:00N 25°46' W 080°09'2 4.4
2017-Dec-02 19:28N 25°47' W 080°11'0 0.0
2017-Dec-02 18:57N 25°47' W 080°11'2 4.8
2017-Dec-02 18:30N 25°46' W 080°09'1 1.9
2017-Dec-02 18:00N 25°47' W 080°09'2 3.3
2017-Dec-02 17:30N 25°47' W 080°11'0 0.0
2017-Dec-02 17:00N 25°47' W 080°11'2 4.7
2017-Dec-02 16:28N 25°46' W 080°09'1 2.8
2017-Dec-02 16:00N 25°47' W 080°10'1 2.9
2017-Dec-02 15:30N 25°47' W 080°11'0 0.1
2017-Dec-02 14:59N 25°47' W 080°11'0 0.0
2017-Dec-02 14:22N 25°47' W 080°11'0 0.0
2017-Dec-02 13:54N 25°47' W 080°11'0 0.0
2017-Dec-02 13:26N 25°47' W 080°11'0 0.0
2017-Dec-02 13:00N 25°47' W 080°11'0 0.0
2017-Dec-02 12:30N 25°47' W 080°11'0 0.0
2017-Dec-02 11:54N 25°47' W 080°11'0 0.0
2017-Dec-02 11:30N 25°47' W 080°11'0 0.0
2017-Dec-02 11:00N 25°47' W 080°11'0 0.0
2017-Dec-02 10:18N 25°47' W 080°11'0 0.0
2017-Dec-02 09:54N 25°47' W 080°11'0 0.0
2017-Dec-02 09:30N 25°47' W 080°11'0 0.0
2017-Dec-02 08:54N 25°47' W 080°11'0 0.0
2017-Dec-02 08:30N 25°47' W 080°11'0 0.0
2017-Dec-02 07:54N 25°47' W 080°11'0 0.0
2017-Dec-02 07:30N 25°47' W 080°11'0 0.0
2017-Dec-02 06:57N 25°47' W 080°11'0 0.0
2017-Dec-02 06:27N 25°47' W 080°11'0 0.0
2017-Dec-02 05:57N 25°47' W 080°11'0 0.0
2017-Dec-02 05:30N 25°47' W 080°11'0 0.0
2017-Dec-02 05:00N 25°47' W 080°11'0 0.0
2017-Dec-02 04:30N 25°47' W 080°11'0 0.0
2017-Dec-02 03:57N 25°47' W 080°11'0 0.0
2017-Dec-02 03:24N 25°47' W 080°11'0 0.0
2017-Dec-02 02:51N 25°47' W 080°11'0 0.0
2017-Dec-02 02:27N 25°47' W 080°11'0 0.0
2017-Dec-02 01:57N 25°47' W 080°11'0 0.0
2017-Dec-02 01:24N 25°47' W 080°11'0 0.0
2017-Dec-02 00:57N 25°47' W 080°11'1 2.0
2017-Dec-02 00:30N 25°47' W 080°11'2 4.3
2017-Dec-02 00:00N 25°46' W 080°09'2 4.4
2017-Dec-01 23:27N 25°47' W 080°11'0 0.0
2017-Dec-01 23:00N 25°47' W 080°11'2 4.7
2017-Dec-01 22:30N 25°46' W 080°09'1 2.3
2017-Dec-01 22:00N 25°47' W 080°10'1 2.7
2017-Dec-01 21:27N 25°47' W 080°11'0 0.1
2017-Dec-01 21:00N 25°47' W 080°11'2 4.8
2017-Dec-01 20:30N 25°46' W 080°09'1 2.2
2017-Dec-01 20:00N 25°47' W 080°10'1 2.9
2017-Dec-01 19:29N 25°47' W 080°11'0 0.1
2017-Dec-01 19:00N 25°47' W 080°11'1 3.0
2017-Dec-01 18:30N 25°47' W 080°09'1 2.4
2017-Dec-01 18:00N 25°46' W 080°08'3 4.7
2017-Dec-01 17:28N 25°47' W 080°11'0 0.0
2017-Dec-01 16:59N 25°47' W 080°11'2 4.6
2017-Dec-01 16:30N 25°46' W 080°09'1 2.0
2017-Dec-01 16:00N 25°47' W 080°09'2 2.5
2017-Dec-01 15:22N 25°47' W 080°11'0 0.0
2017-Dec-01 14:58N 25°47' W 080°11'0 0.0
2017-Dec-01 14:25N 25°47' W 080°11'0 0.0
2017-Dec-01 13:58N 25°47' W 080°11'0 0.0
2017-Dec-01 13:25N 25°47' W 080°11'0 0.0
2017-Dec-01 12:58N 25°47' W 080°11'0 0.0
2017-Dec-01 12:28N 25°47' W 080°11'0 0.0
2017-Dec-01 11:58N 25°47' W 080°11'0 0.0
2017-Dec-01 11:25N 25°47' W 080°11'0 0.0
2017-Dec-01 10:58N 25°47' W 080°11'0 0.0
2017-Dec-01 10:28N 25°47' W 080°11'0 0.0
2017-Dec-01 09:58N 25°47' W 080°11'0 0.0
2017-Dec-01 09:19N 25°47' W 080°11'0 0.0
2017-Dec-01 08:58N 25°47' W 080°11'0 0.0
2017-Dec-01 08:28N 25°47' W 080°11'0 0.0
2017-Dec-01 07:58N 25°47' W 080°11'0 0.0
2017-Dec-01 07:28N 25°47' W 080°11'0 0.0
2017-Dec-01 06:55N 25°47' W 080°11'0 0.0
2017-Dec-01 06:28N 25°47' W 080°11'0 0.0
2017-Dec-01 05:58N 25°47' W 080°11'0 0.0
2017-Dec-01 05:28N 25°47' W 080°11'0 0.0
2017-Dec-01 04:58N 25°47' W 080°11'0 0.0
2017-Dec-01 04:28N 25°47' W 080°11'0 0.0
2017-Dec-01 03:58N 25°47' W 080°11'0 0.0
2017-Dec-01 03:28N 25°47' W 080°11'0 0.0
2017-Dec-01 02:58N 25°47' W 080°11'0 0.0
2017-Dec-01 02:19N 25°47' W 080°11'0 0.0
2017-Dec-01 01:58N 25°47' W 080°11'  

Dump ship's entire track history